Humidity-temperature Sensor

Selected Measurement Type: Air Temperature

 
Air Temperature [°C]     6 entries per hour
Showing data from 1/18/2021 (00:00:00 Z) to 1/15/2021 (00:01:00 Z)
Previous Next [ Day | 3-Days | 7-Days ]
First Last
Prev [ Day | 3-Days | 7-Days ] Next
First Last

Start Time:     :
End Time:     :     
Time (in GMT) :00 :50 :40 :30 :20 :10
Previous Next [ Day | 3-Days | 7-Days ]
First Last
Prev [ Day | 3-Days | 7-Days ] Next
First Last


123 => good data
MM => data is determined as missing
-- => data not received/configured
Back to Top Back to Top
1/18/2021 00:00 to 23:10 24.05 24.06 24.09 24.10 24.13 24.19
1/17/2021 23:00 to 22:10 24.22 24.30 24.32 24.39 24.53 24.49
1/17/2021 22:00 to 21:10 24.47 24.64 24.72 24.75 24.82 24.63
1/17/2021 21:00 to 20:10 24.70 24.77 24.74 24.79 24.62 24.59
1/17/2021 20:00 to 19:10 24.61 24.52 24.52 24.69 24.67 24.78
1/17/2021 19:00 to 18:10 24.66 24.86 24.42 24.42 24.74 24.72
1/17/2021 18:00 to 17:10 -- -- -- -- -- --
1/17/2021 17:00 to 16:10 23.90 23.86 23.96 24.02 23.89 23.96
1/17/2021 16:00 to 15:10 23.98 24.01 24.00 24.10 24.10 23.95
1/17/2021 15:00 to 14:10 23.97 23.92 24.04 23.98 23.89 23.80
1/17/2021 14:00 to 13:10 23.75 23.78 23.71 23.80 23.79 23.76
1/17/2021 13:00 to 12:10 23.76 23.76 23.72 23.71 23.70 23.74
1/17/2021 12:00 to 11:10 23.71 23.71 23.68 23.66 23.65 23.68
1/17/2021 11:00 to 10:10 23.63 23.58 23.67 23.61 23.61 23.59
1/17/2021 10:00 to 9:10 23.57 23.58 23.58 23.56 23.56 23.48
1/17/2021 09:00 to 8:10 23.49 23.51 23.54 23.61 23.60 23.66
1/17/2021 08:00 to 7:10 23.68 23.64 23.63 23.66 23.66 23.68
1/17/2021 07:00 to 6:10 23.69 23.77 23.86 23.84 23.76 23.71
1/17/2021 06:00 to 5:10 23.79 23.92 23.82 23.93 23.87 23.85
1/17/2021 05:00 to 4:10 23.82 23.98 23.93 23.91 24.02 24.11
1/17/2021 04:00 to 3:10 24.04 23.97 24.03 23.97 24.10 24.01
1/17/2021 03:00 to 2:10 24.01 24.04 24.04 24.06 24.00 24.11
1/17/2021 02:00 to 1:10 24.07 23.99 24.03 24.02 24.07 23.95
1/17/2021 01:00 to 0:10 23.87 23.98 24.00 24.02 24.10 24.20
1/17/2021 00:00 to 23:10 24.37 24.48 24.79 24.90 24.75 24.83
1/16/2021 23:00 to 22:10 24.99 24.79 24.76 24.87 24.88 24.92
1/16/2021 22:00 to 21:10 24.82 25.10 24.92 25.33 25.26 25.13
1/16/2021 21:00 to 20:10 25.14 24.98 24.92 25.10 25.04 25.11
1/16/2021 20:00 to 19:10 25.30 25.07 24.57 25.26 24.74 25.06
1/16/2021 19:00 to 18:10 25.27 25.16 25.29 24.61 24.64 24.73
1/16/2021 18:00 to 17:10 24.24 24.06 23.86 23.87 23.82 23.91
1/16/2021 17:00 to 16:10 24.03 24.30 24.17 24.26 24.27 24.13
1/16/2021 16:00 to 15:10 24.09 23.95 23.90 23.74 23.70 23.73
1/16/2021 15:00 to 14:10 23.68 23.62 23.62 23.68 23.46 23.33
1/16/2021 14:00 to 13:10 23.30 23.30 23.23 23.16 23.13 23.14
1/16/2021 13:00 to 12:10 23.12 23.05 23.07 23.01 23.11 23.10
1/16/2021 12:00 to 11:10 23.05 23.06 23.09 23.02 23.13 23.05
1/16/2021 11:00 to 10:10 23.00 22.91 22.91 22.99 22.98 22.96
1/16/2021 10:00 to 9:10 23.00 22.98 22.95 22.96 23.05 23.02
1/16/2021 09:00 to 8:10 23.01 23.06 23.06 23.05 23.04 23.02
1/16/2021 08:00 to 7:10 23.10 23.03 23.10 23.07 23.10 23.03
1/16/2021 07:00 to 6:10 23.10 23.03 23.08 22.98 22.96 23.00
1/16/2021 06:00 to 5:10 23.09 23.03 23.05 23.08 23.07 23.05
1/16/2021 05:00 to 4:10 22.93 22.92 22.83 22.81 22.97 22.93
1/16/2021 04:00 to 3:10 22.97 23.13 23.26 23.15 22.90 22.66
1/16/2021 03:00 to 2:10 22.72 22.67 22.55 22.58 22.39 22.94
1/16/2021 02:00 to 1:10 23.10 23.02 23.02 22.99 23.00 23.15
1/16/2021 01:00 to 0:10 23.21 23.45 23.36 23.62 23.67 23.62
1/16/2021 00:00 to 23:10 23.69 23.73 23.67 23.71 23.77 23.78
1/15/2021 23:00 to 22:10 23.75 23.80 23.79 23.93 24.13 24.41
1/15/2021 22:00 to 21:10 24.48 24.48 24.63 24.60 24.08 24.11
1/15/2021 21:00 to 20:10 24.64 24.43 24.73 24.55 24.51 24.46
1/15/2021 20:00 to 19:10 24.36 24.46 24.36 24.24 24.23 24.25
1/15/2021 19:00 to 18:10 24.25 24.33 24.24 23.97 24.43 24.37
1/15/2021 18:00 to 17:10 24.19 23.95 24.04 23.74 23.56 22.98
1/15/2021 17:00 to 16:10 22.93 23.08 23.13 23.51 23.53 23.68
1/15/2021 16:00 to 15:10 24.14 23.68 23.32 23.25 23.27 23.37
1/15/2021 15:00 to 14:10 23.52 23.71 23.54 23.56 23.66 23.47
1/15/2021 14:00 to 13:10 23.26 23.20 23.08 22.96 22.92 22.86
1/15/2021 13:00 to 12:10 22.69 22.62 22.59 22.55 22.58 22.57
1/15/2021 12:00 to 11:10 22.60 22.61 22.60 22.56 22.60 22.60
1/15/2021 11:00 to 10:10 22.61 22.59 22.64 22.64 22.63 22.65
1/15/2021 10:00 to 9:10 22.64 22.67 22.65 22.67 22.68 22.70
1/15/2021 09:00 to 8:10 22.70 22.70 22.69 22.68 22.69 22.69
1/15/2021 08:00 to 7:10 22.71 22.70 22.73 22.78 22.80 22.82
1/15/2021 07:00 to 6:10 22.82 22.86 22.88 22.91 22.94 22.93
1/15/2021 06:00 to 5:10 22.95 22.97 22.98 23.00 23.00 23.00
1/15/2021 05:00 to 4:10 23.02 23.01 23.02 23.01 23.01 22.99
1/15/2021 04:00 to 3:10 23.01 23.02 23.04 23.07 23.09 23.07
1/15/2021 03:00 to 2:10 23.08 23.11 23.13 23.11 23.13 23.18
1/15/2021 02:00 to 1:10 23.17 23.09 23.18 23.14 23.20 23.19
1/15/2021 01:00 to 0:10 23.12 23.15 23.13 23.17 23.28 23.26